Time;durP1;ratioP1;P1;durP2;ratioP2;P2;SDS_P1;SDS_P2;PMS_P1;PMS_P2;Temp;Humidity;BMP_temperature;BMP_pressure;BME280_temperature;BME280_humidity;BME280_pressure;Samples;Min_cycle;Max_cycle;Signal;HPM_P1;HPM_P2
2022/09/02 00:01:03;;;;;;;7.38;2.78;;;;;;;8.47;73.64;98985.88;4237253;27;20047;-70
2022/09/02 00:03:03;;;;;;;6.65;2.38;;;;;;;8.41;72.86;98988.88;4236908;27;20039;-70
2022/09/02 00:05:05;;;;;;;6.50;2.70;;;;;;;8.41;72.77;98990.84;4237099;27;20049;-70
2022/09/02 00:07:05;;;;;;;9.00;3.22;;;;;;;8.39;72.69;98987.63;4236937;27;20057;-70
2022/09/02 00:09:08;;;;;;;11.27;2.85;;;;;;;8.36;72.05;98994.66;4236968;27;20399;-70
2022/09/02 00:11:12;;;;;;;;;;;;;;;8.32;72.14;98999.22;4237626;27;20527;-70
2022/09/02 00:13:15;;;;;;;19.08;3.10;;;;;;;8.28;73.10;98995.59;4236779;27;20226;-70
2022/09/02 00:15:15;;;;;;;11.32;2.85;;;;;;;8.18;73.68;98991.34;4237117;27;20047;-70
2022/09/02 00:17:15;;;;;;;7.50;2.28;;;;;;;8.18;73.75;98993.28;4237046;27;20183;-70
2022/09/02 00:19:19;;;;;;;8.60;2.30;;;;;;;8.14;73.77;98995.16;4218070;28;20129;-70
2022/09/02 00:21:20;;;;;;;13.75;3.75;;;;;;;8.11;74.23;98982.09;4237027;27;20051;-70
2022/09/02 00:23:21;;;;;;;4.38;2.30;;;;;;;8.08;74.33;98986.31;4237147;27;20450;-70
2022/09/02 00:25:22;;;;;;;8.88;3.00;;;;;;;8.05;74.46;98981.53;4236690;27;20069;-70
2022/09/02 00:27:22;;;;;;;7.75;2.45;;;;;;;8.05;74.67;98983.47;4218340;27;20047;-70
2022/09/02 00:29:25;;;;;;;5.93;2.20;;;;;;;8.03;75.06;98988.53;4235989;27;20498;-70
2022/09/02 00:31:27;;;;;;;6.82;2.78;;;;;;;8.02;74.24;98975.88;4236756;27;20130;-70
2022/09/02 00:33:28;;;;;;;4.00;1.90;;;;;;;8.06;74.66;98982.31;4237061;27;20054;-70
2022/09/02 00:35:29;;;;;;;4.68;2.60;;;;;;;8.09;75.28;98984.38;4236063;27;20048;-70
2022/09/02 00:37:29;;;;;;;8.30;2.20;;;;;;;8.07;75.22;98978.41;4237869;27;20046;-70
2022/09/02 00:39:30;;;;;;;4.70;1.98;;;;;;;8.02;75.84;98973.94;4235976;27;20050;-70
2022/09/02 00:41:31;;;;;;;3.13;2.20;;;;;;;7.99;75.41;98974.66;4237130;27;20286;-70
2022/09/02 00:43:39;;;;;;;8.10;2.40;;;;;;;7.98;75.52;98969.47;4236377;27;20470;-70
2022/09/02 00:45:39;;;;;;;3.28;1.95;;;;;;;7.98;75.51;98963.97;4236531;27;20265;-70
2022/09/02 00:47:40;;;;;;;10.65;2.40;;;;;;;7.99;74.68;98969.13;4236099;27;20158;-70
2022/09/02 00:49:44;;;;;;;5.70;2.42;;;;;;;7.97;75.12;98965.94;4236154;27;20772;-70
2022/09/02 00:51:49;;;;;;;3.28;1.90;;;;;;;7.91;76.03;98972.03;4236853;27;20441;-69
2022/09/02 00:53:50;;;;;;;12.05;3.45;;;;;;;7.89;76.01;98978.69;4235597;27;20319;-70
2022/09/02 00:55:51;;;;;;;3.22;1.95;;;;;;;7.87;76.21;98975.50;4236343;27;20047;-70
2022/09/02 00:57:59;;;;;;;5.22;2.33;;;;;;;7.90;75.46;98971.22;4236074;27;20072;-69
2022/09/02 01:00:09;;;;;;;10.13;2.15;;;;;;;7.93;74.99;98978.78;4235802;27;20446;-70
2022/09/02 01:02:10;;;;;;;6.82;2.63;;;;;;;7.91;75.62;98975.59;4234800;27;20838;-70
2022/09/02 01:04:11;;;;;;;5.25;2.22;;;;;;;8.01;74.55;98972.34;4235862;27;20446;-70
2022/09/02 01:06:14;;;;;;;3.03;2.00;;;;;;;8.00;74.69;98967.97;4236155;27;20049;-70
2022/09/02 01:08:23;;;;;;;4.95;1.98;;;;;;;8.01;74.89;98969.56;4235847;27;20363;-70
2022/09/02 01:10:34;;;;;;;5.57;1.90;;;;;;;8.02;75.72;98967.63;4236415;27;20054;-70
2022/09/02 01:12:35;;;;;;;5.43;2.25;;;;;;;8.04;75.88;98957.06;4236374;27;20054;-70
2022/09/02 01:14:35;;;;;;;2.65;1.98;;;;;;;8.07;76.14;98961.88;4235457;27;20462;-70
2022/09/02 01:16:42;;;;;;;3.63;1.98;;;;;;;8.06;75.79;98961.06;4235888;27;20509;-68
2022/09/02 01:18:48;;;;;;;3.83;1.92;;;;;;;8.09;75.54;98956.81;4235474;27;20283;-70
2022/09/02 01:20:49;;;;;;;7.18;2.40;;;;;;;8.09;75.82;98959.56;4236355;27;20035;-69
2022/09/02 01:22:50;;;;;;;3.47;2.10;;;;;;;8.05;76.84;98958.69;4236069;27;20127;-69
2022/09/02 01:24:51;;;;;;;5.18;2.20;;;;;;;8.03;77.13;98958.22;4235864;27;20378;-69
2022/09/02 01:26:54;;;;;;;4.50;2.30;;;;;;;8.05;76.17;98958.69;4235609;27;20044;-69
2022/09/02 01:28:54;;;;;;;6.18;2.45;;;;;;;8.10;76.55;98961.97;4235702;27;20043;-70
2022/09/02 01:30:54;;;;;;;8.85;2.85;;;;;;;8.06;77.34;98963.03;4235976;27;20206;-70
2022/09/02 01:32:55;;;;;;;6.30;2.35;;;;;;;8.04;77.57;98959.84;4236116;27;20145;-69
2022/09/02 01:34:56;;;;;;;6.50;2.13;;;;;;;8.03;78.67;98963.75;4235920;27;20059;-69
2022/09/02 01:36:57;;;;;;;3.65;2.00;;;;;;;8.02;78.73;98971.19;4235327;27;20141;-69
2022/09/02 01:38:57;;;;;;;5.75;2.45;;;;;;;7.99;78.96;98965.56;4235758;28;20610;-69
2022/09/02 01:40:58;;;;;;;2.85;2.03;;;;;;;7.98;78.40;98962.03;4235168;28;20050;-69
2022/09/02 01:43:06;;;;;;;3.95;2.35;;;;;;;7.99;77.08;98951.81;4235869;28;20051;-69
2022/09/02 01:45:08;;;;;;;6.53;2.67;;;;;;;8.07;76.73;98953.59;4235851;28;20050;-69
2022/09/02 01:47:12;;;;;;;2.65;2.05;;;;;;;8.07;77.20;98961.88;4235715;28;20290;-69
2022/09/02 01:49:13;;;;;;;3.72;2.28;;;;;;;8.05;76.99;98953.97;4235338;28;20136;-69
2022/09/02 01:51:17;;;;;;;3.70;2.30;;;;;;;8.03;77.27;98952.72;4236035;28;20217;-69
2022/09/02 01:53:18;;;;;;;2.85;2.17;;;;;;;8.02;77.38;98956.59;4235743;28;20046;-69
2022/09/02 01:55:18;;;;;;;4.88;2.10;;;;;;;7.98;78.01;98962.03;4235704;28;20103;-69
2022/09/02 01:57:19;;;;;;;6.22;2.40;;;;;;;7.94;77.71;98952.03;4235907;28;20499;-69
2022/09/02 01:59:19;;;;;;;2.63;2.25;;;;;;;7.92;77.46;98957.91;4236378;27;20055;-69
2022/09/02 02:01:20;;;;;;;3.17;2.00;;;;;;;7.89;77.37;98953.91;4239166;27;20043;-69
2022/09/02 02:03:20;;;;;;;5.22;2.25;;;;;;;7.92;77.75;98948.84;4239046;27;20807;-69
2022/09/02 02:05:21;;;;;;;4.78;2.58;;;;;;;7.93;78.44;98951.22;4239601;27;20097;-69
2022/09/02 02:07:23;;;;;;;3.75;2.13;;;;;;;7.96;78.66;98947.00;4238728;27;20218;-69
2022/09/02 02:09:25;;;;;;;2.67;2.00;;;;;;;8.01;77.67;98943.97;4238027;27;20081;-69
2022/09/02 02:11:25;;;;;;;4.32;2.72;;;;;;;8.04;78.15;98938.59;4238852;27;20062;-69
2022/09/02 02:13:26;;;;;;;5.20;2.17;;;;;;;8.03;79.09;98945.25;4239101;27;20542;-69
2022/09/02 02:15:27;;;;;;;5.15;2.58;;;;;;;8.02;79.67;98940.06;4239043;27;20087;-69
2022/09/02 02:17:27;;;;;;;8.23;3.60;;;;;;;7.98;79.93;98941.94;4238386;27;20292;-69
2022/09/02 02:19:27;;;;;;;5.25;2.88;;;;;;;7.94;80.44;98946.53;4238775;27;20035;-70
2022/09/02 02:21:28;;;;;;;3.75;2.22;;;;;;;7.89;80.03;98926.34;4238732;27;20071;-69
2022/09/02 02:23:28;;;;;;;2.80;1.95;;;;;;;7.91;80.15;98937.00;4237786;27;20039;-69
2022/09/02 02:25:28;;;;;;;3.92;2.33;;;;;;;7.93;79.43;98934.69;4238810;27;20057;-69
2022/09/02 02:27:29;;;;;;;3.17;2.10;;;;;;;7.91;79.14;98934.25;4238302;27;20498;-69
2022/09/02 02:29:29;;;;;;;4.07;2.22;;;;;;;7.88;79.06;98935.75;4238008;27;20051;-69
2022/09/02 02:31:30;;;;;;;8.38;3.10;;;;;;;7.85;79.46;98927.38;4239119;27;20050;-69
2022/09/02 02:33:31;;;;;;;3.55;2.03;;;;;;;7.83;79.58;98927.72;4238595;27;20502;-69
2022/09/02 02:35:31;;;;;;;2.35;2.15;;;;;;;7.78;79.85;98933.50;4238777;27;20422;-69
2022/09/02 02:37:32;;;;;;;6.70;2.60;;;;;;;7.80;77.74;98924.88;4238379;27;20050;-69
2022/09/02 02:39:33;;;;;;;3.72;2.20;;;;;;;7.79;78.56;98929.59;4237344;27;20049;-69
2022/09/02 02:41:34;;;;;;;4.68;2.50;;;;;;;7.78;78.97;98929.94;4238701;27;20287;-69
2022/09/02 02:43:35;;;;;;;4.15;2.20;;;;;;;7.70;79.48;98928.94;4238596;27;20445;-69
2022/09/02 02:45:35;;;;;;;3.42;2.00;;;;;;;7.67;79.60;98928.81;4238913;27;20055;-69
2022/09/02 02:47:41;;;;;;;3.55;2.22;;;;;;;7.58;80.94;98931.69;4237808;27;20046;-69
2022/09/02 02:49:42;;;;;;;4.22;1.98;;;;;;;7.52;81.31;98933.06;4237839;27;20046;-69
2022/09/02 02:51:42;;;;;;;3.47;2.22;;;;;;;7.50;81.48;98938.94;4238508;27;20130;-69
2022/09/02 02:53:43;;;;;;;6.47;2.13;;;;;;;7.47;81.22;98933.34;4238239;27;20532;-69
2022/09/02 02:55:44;;;;;;;2.50;2.00;;;;;;;7.51;80.52;98928.72;4238436;27;20039;-69
2022/09/02 02:57:45;;;;;;;3.70;2.40;;;;;;;7.53;80.13;98934.69;4238460;27;20134;-69
2022/09/02 02:59:45;;;;;;;4.00;2.13;;;;;;;7.57;79.47;98935.59;4236493;27;20078;-70
2022/09/02 03:01:46;;;;;;;2.88;2.20;;;;;;;7.59;78.83;98922.28;4238655;27;20461;-69
2022/09/02 03:03:46;;;;;;;3.97;2.55;;;;;;;7.65;78.83;98937.44;4219570;28;20665;-69
2022/09/02 03:05:48;;;;;;;3.28;2.38;;;;;;;7.68;78.28;98933.97;4237601;27;20377;-69
2022/09/02 03:07:48;;;;;;;4.63;2.10;;;;;;;7.66;79.19;98936.28;4237896;27;20050;-69
2022/09/02 03:09:48;;;;;;;5.55;2.58;;;;;;;7.68;79.85;98933.16;4236746;27;20035;-69
2022/09/02 03:11:49;;;;;;;5.13;2.63;;;;;;;7.68;80.05;98930.41;4237630;27;20093;-69
2022/09/02 03:13:49;;;;;;;3.30;2.47;;;;;;;7.69;80.27;98929.25;4237614;27;20502;-69
2022/09/02 03:15:51;;;;;;;3.38;2.45;;;;;;;7.67;80.92;98923.31;4238567;27;20043;-69
2022/09/02 03:17:51;;;;;;;6.25;2.40;;;;;;;7.60;81.94;98916.41;4236499;27;20391;-69
2022/09/02 03:19:52;;;;;;;26.98;5.57;;;;;;;7.62;82.28;98927.13;4235883;27;20092;-69
2022/09/02 03:21:53;;;;;;;3.33;2.63;;;;;;;7.64;81.00;98927.56;4236293;27;20158;-69
2022/09/02 03:23:54;;;;;;;4.47;2.35;;;;;;;7.69;80.29;98921.00;4235467;27;20082;-69
2022/09/02 03:25:55;;;;;;;3.85;2.55;;;;;;;7.69;80.53;98919.03;4235515;27;20035;-69
2022/09/02 03:27:55;;;;;;;4.95;2.70;;;;;;;7.70;80.89;98923.44;4218060;27;20286;-69
2022/09/02 03:29:56;;;;;;;3.03;2.38;;;;;;;7.72;80.66;98923.06;4236611;27;20039;-69
2022/09/02 03:31:56;;;;;;;2.90;2.15;;;;;;;7.70;80.84;98920.66;4233589;27;20035;-69
2022/09/02 03:33:56;;;;;;;4.20;2.40;;;;;;;7.71;80.92;98919.53;4234196;27;20035;-70
2022/09/02 03:35:57;;;;;;;6.88;2.80;;;;;;;7.74;80.31;98916.06;4233146;27;20047;-69
2022/09/02 03:37:59;;;;;;;3.00;2.38;;;;;;;7.75;80.74;98908.59;4233797;27;20054;-69
2022/09/02 03:40:10;;;;;;;3.38;2.22;;;;;;;7.79;80.40;98917.78;4233244;27;20089;-69
2022/09/02 03:42:11;;;;;;;7.00;2.88;;;;;;;7.77;80.95;98909.03;4233755;27;20479;-69
2022/09/02 03:44:12;;;;;;;3.83;2.30;;;;;;;7.79;80.42;98917.78;4236561;27;20019;-69
2022/09/02 03:46:12;;;;;;;4.85;2.40;;;;;;;7.81;79.93;98916.28;4236706;27;20040;-70
2022/09/02 03:48:13;;;;;;;6.03;2.50;;;;;;;7.79;80.69;98910.31;4236270;27;20489;-70
2022/09/02 03:50:14;;;;;;;3.65;2.47;;;;;;;7.76;81.31;98912.94;4235586;27;20023;-69
2022/09/02 03:52:14;;;;;;;6.88;2.85;;;;;;;7.72;81.59;98915.59;4236131;27;20023;-70
2022/09/02 03:54:15;;;;;;;7.30;3.47;;;;;;;7.69;81.44;98908.03;4236721;27;20055;-70
2022/09/02 03:56:15;;;;;;;3.63;2.10;;;;;;;7.64;82.69;98910.25;4236479;27;20019;-70
2022/09/02 03:58:16;;;;;;;7.70;2.70;;;;;;;7.56;83.59;98906.47;4236753;27;20054;-70
2022/09/02 04:00:19;;;;;;;6.95;2.90;;;;;;;7.55;84.01;98918.63;4236545;27;20202;-69
2022/09/02 04:02:19;;;;;;;4.50;2.90;;;;;;;7.54;84.63;98915.06;4236892;27;20023;-69
2022/09/02 04:04:20;;;;;;;7.03;2.83;;;;;;;7.55;84.94;98913.94;4237093;27;20316;-69
2022/09/02 04:06:23;;;;;;;4.65;2.60;;;;;;;7.56;85.07;98923.00;4235205;27;20027;-70
2022/09/02 04:08:24;;;;;;;6.15;2.63;;;;;;;7.58;84.81;98917.94;4217115;28;20051;-70
2022/09/02 04:10:25;;;;;;;4.40;2.75;;;;;;;7.59;84.50;98923.09;4236862;27;20407;-69
2022/09/02 04:12:25;;;;;;;4.47;2.45;;;;;;;7.64;83.24;98926.75;4236555;27;21179;-70
2022/09/02 04:14:26;;;;;;;5.47;2.65;;;;;;;7.67;82.95;98915.03;4235482;27;20071;-70
2022/09/02 04:16:27;;;;;;;3.70;2.47;;;;;;;7.67;83.77;98915.84;4236254;27;20073;-69
2022/09/02 04:18:29;;;;;;;3.63;2.60;;;;;;;7.69;83.13;98916.28;4235709;27;20498;-69
2022/09/02 04:20:29;;;;;;;3.88;2.85;;;;;;;7.76;81.71;98916.50;4236692;27;20387;-70
2022/09/02 04:22:30;;;;;;;3.90;2.40;;;;;;;7.82;81.75;98917.88;4235483;27;20125;-69
2022/09/02 04:24:31;;;;;;;6.15;2.67;;;;;;;7.85;81.97;98910.84;4235124;27;20118;-69
2022/09/02 04:26:32;;;;;;;6.05;2.70;;;;;;;7.86;82.66;98923.47;4235616;27;20135;-70
2022/09/02 04:28:32;;;;;;;5.45;2.67;;;;;;;7.84;83.01;98912.81;4235811;27;20058;-70
2022/09/02 04:30:33;;;;;;;5.68;2.92;;;;;;;7.82;82.89;98920.63;4237374;27;20067;-69
2022/09/02 04:32:34;;;;;;;8.15;2.80;;;;;;;7.86;82.66;98906.94;4236571;27;20096;-69
2022/09/02 04:34:34;;;;;;;5.07;3.13;;;;;;;7.94;82.22;98914.25;4235839;27;20455;-69
2022/09/02 04:36:35;;;;;;;6.13;3.10;;;;;;;7.95;82.19;98912.34;4235916;27;20436;-70
2022/09/02 04:38:35;;;;;;;6.43;3.13;;;;;;;7.99;81.88;98904.97;4235506;27;20099;-69
2022/09/02 04:40:44;;;;;;;3.85;2.70;;;;;;;8.04;81.67;98913.00;4236417;27;20386;-70
2022/09/02 04:42:46;;;;;;;7.15;2.70;;;;;;;8.07;81.52;98904.00;4235501;27;20550;-69
2022/09/02 04:44:46;;;;;;;4.97;2.65;;;;;;;8.06;81.79;98908.72;4235763;27;20039;-70
2022/09/02 04:46:47;;;;;;;6.22;3.60;;;;;;;8.10;82.40;98914.31;4236147;27;21192;-69
2022/09/02 04:48:47;;;;;;;4.05;2.83;;;;;;;8.13;81.70;98910.88;4234473;27;20714;-69
2022/09/02 04:50:48;;;;;;;8.77;2.90;;;;;;;8.12;82.03;98909.28;4235782;27;20039;-69
2022/09/02 04:52:49;;;;;;;4.10;2.80;;;;;;;8.12;81.78;98901.81;4235985;27;20334;-69
2022/09/02 04:54:49;;;;;;;5.88;2.80;;;;;;;8.08;83.23;98905.59;4234599;27;20066;-69
2022/09/02 04:56:49;;;;;;;4.45;2.83;;;;;;;8.04;83.53;98913.00;4235571;27;20301;-69
2022/09/02 04:58:51;;;;;;;6.13;3.25;;;;;;;8.01;83.58;98906.19;4235298;27;20043;-70
2022/09/02 05:00:51;;;;;;;5.13;2.95;;;;;;;8.00;83.38;98906.56;4236891;27;20074;-70
2022/09/02 05:02:53;;;;;;;4.70;2.83;;;;;;;7.97;83.31;98904.50;4236118;27;20428;-69
2022/09/02 05:04:53;;;;;;;5.07;2.90;;;;;;;7.98;84.03;98920.69;4235408;27;20051;-70
2022/09/02 05:06:54;;;;;;;2.97;2.60;;;;;;;8.00;83.53;98912.06;4236379;27;20585;-69
2022/09/02 05:08:58;;;;;;;7.60;3.17;;;;;;;8.01;83.92;98917.22;4236289;27;20039;-70
2022/09/02 05:10:59;;;;;;;4.07;2.92;;;;;;;7.99;83.74;98921.50;4236604;27;20567;-69
2022/09/02 05:13:00;;;;;;;5.35;2.97;;;;;;;8.01;83.52;98919.97;4236091;27;20405;-70
2022/09/02 05:15:01;;;;;;;4.47;2.75;;;;;;;8.02;83.91;98921.56;4236342;27;20471;-69
2022/09/02 05:17:01;;;;;;;4.00;2.72;;;;;;;8.01;83.89;98917.22;4236827;27;20338;-69
2022/09/02 05:19:04;;;;;;;13.38;3.55;;;;;;;8.02;83.95;98915.25;4235495;27;20512;-69
2022/09/02 05:21:05;;;;;;;9.52;3.03;;;;;;;8.03;83.84;98916.91;4235676;27;20047;-70
2022/09/02 05:23:05;;;;;;;4.38;3.20;;;;;;;8.02;84.57;98907.78;4236941;27;20395;-69
2022/09/02 05:25:08;;;;;;;7.85;3.42;;;;;;;8.08;83.67;98914.66;4236202;27;20115;-70
2022/09/02 05:27:08;;;;;;;4.45;3.08;;;;;;;8.13;83.79;98913.63;4236285;27;20262;-70
2022/09/02 05:29:11;;;;;;;6.95;3.00;;;;;;;8.16;83.85;98922.00;4235600;27;20396;-70
2022/09/02 05:31:14;;;;;;;5.80;2.90;;;;;;;8.23;82.76;98912.31;4236955;27;20539;-69
2022/09/02 05:33:15;;;;;;;5.65;2.78;;;;;;;8.25;82.59;98916.31;4235883;27;20073;-70
2022/09/02 05:35:15;;;;;;;6.07;3.40;;;;;;;8.31;83.47;98916.88;4235573;27;20047;-70
2022/09/02 05:37:16;;;;;;;5.38;3.25;;;;;;;8.31;83.38;98920.44;4236765;27;20058;-70
2022/09/02 05:39:16;;;;;;;3.60;2.78;;;;;;;8.37;83.28;98923.78;4235234;28;20341;-69
2022/09/02 05:41:24;;;;;;;4.38;3.55;;;;;;;8.40;83.42;98915.59;4235830;28;20493;-70
2022/09/02 05:43:24;;;;;;;6.55;3.78;;;;;;;8.45;83.37;98914.53;4235621;28;20039;-70
2022/09/02 05:45:25;;;;;;;6.90;3.45;;;;;;;8.47;83.44;98914.19;4236110;28;20049;-70
2022/09/02 05:47:25;;;;;;;6.03;3.58;;;;;;;8.53;83.53;98918.28;4236410;28;20043;-69
2022/09/02 05:49:25;;;;;;;5.38;3.70;;;;;;;8.57;83.38;98921.94;4235827;28;20047;-69
2022/09/02 05:51:26;;;;;;;4.80;3.70;;;;;;;8.59;84.09;98914.91;4236284;28;20058;-70
2022/09/02 05:53:26;;;;;;;6.82;3.40;;;;;;;8.62;84.18;98919.72;4236264;28;20046;-70
2022/09/02 05:55:27;;;;;;;5.07;3.28;;;;;;;8.66;84.06;98914.28;4236734;28;20420;-69
2022/09/02 05:57:27;;;;;;;7.43;3.90;;;;;;;8.71;84.34;98909.31;4235730;28;20490;-70
2022/09/02 05:59:30;;;;;;;8.65;3.90;;;;;;;8.72;84.79;98913.69;4235762;28;20595;-70
2022/09/02 06:01:30;;;;;;;;;;;;;;;8.77;84.70;98907.09;4236891;28;20562;-70
2022/09/02 06:03:30;;;;;;;4.80;3.88;;;;;;;8.81;84.22;98910.75;4236206;28;19983;-71
2022/09/02 06:05:31;;;;;;;7.15;3.85;;;;;;;8.88;83.43;98907.38;4236312;28;20085;-70
2022/09/02 06:07:34;;;;;;;6.35;4.40;;;;;;;8.92;84.12;98911.81;4236203;28;20055;-70
2022/09/02 06:09:35;;;;;;;9.23;5.25;;;;;;;8.97;84.38;98916.25;4235893;28;20539;-70
2022/09/02 06:11:38;;;;;;;12.23;6.95;;;;;;;9.01;83.62;98911.63;4236299;28;20063;-70
2022/09/02 06:13:41;;;;;;;12.65;7.35;;;;;;;9.11;82.51;98908.34;4236218;28;20046;-70
2022/09/02 06:15:43;;;;;;;;;;;;;;;9.18;83.02;98915.97;4236651;28;20074;-70
2022/09/02 06:17:43;;;;;;;11.57;5.80;;;;;;;9.22;83.11;98917.66;4235935;28;19918;-70
2022/09/02 06:19:43;;;;;;;7.47;5.85;;;;;;;9.30;84.00;98918.63;4235362;28;20040;-70
2022/09/02 06:21:45;;;;;;;9.15;5.40;;;;;;;9.34;84.33;98916.75;4236587;28;20058;-70
2022/09/02 06:23:46;;;;;;;6.80;5.15;;;;;;;9.39;84.27;98908.19;4236000;28;20109;-70
2022/09/02 06:25:49;;;;;;;7.00;5.57;;;;;;;9.48;84.55;98921.81;4236200;28;20055;-70
2022/09/02 06:27:49;;;;;;;7.05;4.72;;;;;;;9.55;84.72;98913.69;4236362;28;20050;-70
2022/09/02 06:29:50;;;;;;;10.18;5.13;;;;;;;9.64;84.98;98921.78;4235523;28;20051;-70
2022/09/02 06:31:52;;;;;;;6.78;4.80;;;;;;;9.71;85.56;98919.16;4235731;28;20043;-70
2022/09/02 06:33:54;;;;;;;6.28;4.60;;;;;;;9.76;85.27;98919.69;4236127;28;20337;-70
2022/09/02 06:35:55;;;;;;;7.07;5.22;;;;;;;9.81;84.22;98921.34;4236517;27;20047;-70
2022/09/02 06:37:55;;;;;;;6.85;4.50;;;;;;;9.90;83.71;98915.63;4236937;27;20387;-70
2022/09/02 06:39:55;;;;;;;6.05;5.07;;;;;;;9.99;82.98;98916.19;4235368;28;20043;-70
2022/09/02 06:41:56;;;;;;;4.85;4.30;;;;;;;10.06;82.53;98921.88;4236665;28;20041;-70
2022/09/02 06:43:59;;;;;;;5.03;4.53;;;;;;;10.14;81.31;98921.66;4235738;28;20707;-70
2022/09/02 06:45:59;;;;;;;7.55;5.60;;;;;;;10.24;81.71;98917.53;4237625;27;20479;-70
2022/09/02 06:48:00;;;;;;;6.97;4.50;;;;;;;10.37;80.48;98915.41;4239205;27;20039;-70
2022/09/02 06:50:01;;;;;;;7.43;4.85;;;;;;;10.44;81.95;98918.31;4238380;27;20369;-70
2022/09/02 06:52:04;;;;;;;6.13;5.10;;;;;;;10.53;82.04;98910.59;4238512;27;20070;-70
2022/09/02 06:54:05;;;;;;;;;;;;;;;10.63;82.18;98909.97;4238369;27;20175;-70
2022/09/02 06:56:06;;;;;;;5.25;4.13;;;;;;;10.69;82.43;98910.47;4238874;27;20411;-70
2022/09/02 06:58:06;;;;;;;5.20;4.20;;;;;;;10.76;82.24;98907.84;4238764;27;20088;-70
2022/09/02 07:00:09;;;;;;;5.47;4.10;;;;;;;10.85;82.35;98904.84;4238263;27;20378;-70
2022/09/02 07:02:09;;;;;;;5.88;4.25;;;;;;;10.97;82.42;98910.16;4238563;27;20510;-70
2022/09/02 07:06:35;;;;;;;4.47;4.07;;;;;;;11.20;81.22;98902.63;4238113;27;20054;-70
2022/09/02 07:08:40;;;;;;;5.57;4.10;;;;;;;11.34;81.53;98899.28;4238288;27;20088;-70
2022/09/02 07:10:41;;;;;;;10.70;5.28;;;;;;;11.44;81.00;98906.16;4238309;27;20054;-70
2022/09/02 07:12:41;;;;;;;4.70;3.90;;;;;;;11.51;80.37;98898.75;4238516;27;20130;-70
2022/09/02 07:14:42;;;;;;;5.15;3.95;;;;;;;11.59;79.34;98898.88;4238868;27;20106;-70
2022/09/02 07:16:46;;;;;;;6.07;4.07;;;;;;;11.66;78.80;98904.47;4238011;27;20039;-70
2022/09/02 07:18:47;;;;;;;5.32;4.43;;;;;;;11.71;79.11;98904.97;4237995;27;20146;-70
2022/09/02 07:20:47;;;;;;;4.97;4.10;;;;;;;11.83;79.17;98906.72;4238735;27;20346;-70
2022/09/02 07:22:48;;;;;;;5.38;4.20;;;;;;;11.94;78.79;98910.44;4238740;27;20428;-70
2022/09/02 07:24:48;;;;;;;7.18;3.78;;;;;;;12.03;78.03;98910.97;4238271;27;20043;-70
2022/09/02 07:26:50;;;;;;;4.93;4.20;;;;;;;12.14;78.05;98907.50;4238508;27;20043;-70
2022/09/02 07:28:50;;;;;;;8.00;3.88;;;;;;;12.27;77.84;98911.66;4237748;27;20050;-70
2022/09/02 07:30:53;;;;;;;4.43;3.95;;;;;;;12.36;76.64;98898.28;4237998;27;20047;-70
2022/09/02 07:32:53;;;;;;;4.53;3.72;;;;;;;12.43;76.35;98895.56;4238318;27;20096;-70
2022/09/02 07:34:53;;;;;;;10.27;4.00;;;;;;;12.53;76.20;98897.66;4238347;27;20417;-70
2022/09/02 07:36:55;;;;;;;7.80;3.90;;;;;;;12.66;75.95;98903.75;4238438;27;20162;-70
2022/09/02 07:38:55;;;;;;;3.90;3.53;;;;;;;12.79;76.01;98895.91;4237321;27;20078;-70
2022/09/02 07:40:55;;;;;;;4.63;3.55;;;;;;;12.97;74.63;98901.63;4238227;27;20057;-70
2022/09/02 07:42:56;;;;;;;3.45;3.05;;;;;;;13.08;74.25;98897.78;4238187;27;20074;-70
2022/09/02 07:44:56;;;;;;;6.15;3.65;;;;;;;13.21;73.71;98901.06;4237656;27;20470;-70
2022/09/02 07:46:56;;;;;;;4.38;3.30;;;;;;;13.29;71.04;98890.81;4238252;27;20071;-70
2022/09/02 07:49:03;;;;;;;3.78;3.08;;;;;;;13.38;72.86;98896.81;4237602;27;20042;-70
2022/09/02 07:51:05;;;;;;;5.20;3.60;;;;;;;13.52;72.83;98899.69;4237698;27;20895;-70
2022/09/02 07:53:06;;;;;;;6.32;3.55;;;;;;;13.63;71.83;98897.78;4238419;27;20471;-70
2022/09/02 07:55:06;;;;;;;3.80;3.22;;;;;;;13.77;71.58;98897.06;4237684;27;20050;-70
2022/09/02 07:57:07;;;;;;;5.68;3.10;;;;;;;13.85;70.54;98904.25;4236690;27;20039;-70
2022/09/02 07:59:08;;;;;;;4.75;3.30;;;;;;;13.93;70.77;98907.88;4237590;27;20493;-70
2022/09/02 08:01:09;;;;;;;6.40;3.58;;;;;;;14.04;70.82;98901.16;4237779;27;20038;-70
2022/09/02 08:03:10;;;;;;;3.92;3.05;;;;;;;14.15;69.91;98897.63;4237571;27;20468;-70
2022/09/02 08:05:12;;;;;;;3.67;3.22;;;;;;;14.27;69.77;98897.28;4237603;27;20039;-70
2022/09/02 08:07:13;;;;;;;4.35;2.95;;;;;;;14.34;68.82;98897.31;4238035;27;20841;-70
2022/09/02 08:09:13;;;;;;;4.47;3.20;;;;;;;14.40;69.22;98898.53;4237008;27;20063;-70
2022/09/02 08:11:14;;;;;;;4.35;3.33;;;;;;;14.52;68.79;98895.41;4237652;27;20382;-70
2022/09/02 08:13:15;;;;;;;5.38;2.95;;;;;;;14.60;68.90;98902.56;4237779;27;20155;-70
2022/09/02 08:15:18;;;;;;;3.15;2.80;;;;;;;14.65;67.85;98892.25;4237772;27;20039;-70
2022/09/02 08:17:19;;;;;;;6.88;3.28;;;;;;;14.66;67.34;98900.22;4237251;27;20051;-70
2022/09/02 08:19:20;;;;;;;9.05;3.30;;;;;;;14.76;67.93;98896.63;4237085;27;20537;-70
2022/09/02 08:21:21;;;;;;;4.23;2.60;;;;;;;14.82;66.97;98899.84;4237709;27;20681;-70
2022/09/02 08:23:21;;;;;;;3.13;2.80;;;;;;;14.91;67.29;98893.88;4237184;27;20032;-70
2022/09/02 08:25:21;;;;;;;5.28;2.63;;;;;;;15.03;66.83;98899.84;4237077;27;20046;-70
2022/09/02 08:27:22;;;;;;;4.22;2.78;;;;;;;15.12;66.80;98894.66;4237422;27;20039;-70
2022/09/02 08:29:22;;;;;;;5.90;3.05;;;;;;;15.25;65.96;98892.28;4236938;27;20534;-70
2022/09/02 08:31:23;;;;;;;3.60;2.80;;;;;;;15.40;65.68;98877.13;4237611;27;20039;-70
2022/09/02 08:33:24;;;;;;;10.60;3.35;;;;;;;15.54;64.86;98892.22;4237204;27;20052;-70
2022/09/02 08:35:24;;;;;;;6.15;2.60;;;;;;;15.64;64.12;98886.69;4237495;27;20058;-70
2022/09/02 08:37:26;;;;;;;5.72;2.50;;;;;;;15.71;64.26;98874.69;4238223;27;20070;-70
2022/09/02 08:39:26;;;;;;;2.80;2.40;;;;;;;15.85;63.88;98880.22;4236508;27;20480;-70
2022/09/02 08:41:41;;;;;;;13.55;2.65;;;;;;;15.95;63.29;98881.38;4237261;27;20105;-70
2022/09/02 08:43:43;;;;;;;3.08;2.47;;;;;;;16.01;62.79;98877.00;4236450;27;20449;-70
2022/09/02 08:45:44;;;;;;;5.53;2.55;;;;;;;16.00;61.87;98872.59;4237081;27;20338;-70
2022/09/02 08:47:48;;;;;;;3.30;2.20;;;;;;;16.06;62.34;98879.38;4236559;27;20254;-70
2022/09/02 08:49:58;;;;;;;2.90;2.40;;;;;;;16.16;62.49;98867.34;4237081;27;20043;-70
2022/09/02 08:52:01;;;;;;;2.90;2.10;;;;;;;16.36;60.87;98867.66;4236753;27;20226;-70
2022/09/02 08:54:12;;;;;;;4.80;2.22;;;;;;;16.51;60.31;98866.38;4236533;27;20050;-71
2022/09/02 08:56:15;;;;;;;3.45;2.00;;;;;;;16.61;60.22;98861.13;4236968;27;20334;-70
2022/09/02 08:58:19;;;;;;;3.88;2.15;;;;;;;16.68;59.77;98861.06;4237062;27;20351;-71
2022/09/02 09:00:20;;;;;;;6.60;2.50;;;;;;;16.80;59.04;98857.84;4236831;27;20433;-70
2022/09/02 09:02:52;;;;;;;4.63;2.28;;;;;;;16.94;58.36;98857.69;4236812;27;20106;-70
2022/09/02 09:04:55;;;;;;;5.35;2.38;;;;;;;17.11;58.58;98856.75;4236426;27;20130;-71
2022/09/02 09:07:02;;;;;;;4.47;2.10;;;;;;;17.21;58.09;98845.88;4236676;27;20617;-70
2022/09/02 09:09:19;;;;;;;2.83;2.00;;;;;;;17.23;57.10;98855.47;4235543;27;20035;-70
2022/09/02 09:11:30;;;;;;;3.38;2.05;;;;;;;17.31;56.34;98851.41;4235799;27;20035;-71
2022/09/02 09:14:08;;;;;;;4.05;2.17;;;;;;;17.45;55.71;98849.66;4237006;27;20492;-71
2022/09/02 09:16:45;;;;;;;2.42;1.75;;;;;;;17.57;54.99;98837.94;4230166;27;20111;-71
2022/09/02 09:19:13;;;;;;;1.85;1.67;;;;;;;17.71;52.72;98837.84;4235691;27;20051;-71
2022/09/02 09:21:13;;;;;;;2.65;1.80;;;;;;;17.80;53.39;98832.53;4236591;27;20051;-71
2022/09/02 09:23:26;;;;;;;4.07;1.90;;;;;;;17.89;53.29;98840.41;4236704;27;20384;-71
2022/09/02 09:25:30;;;;;;;3.25;1.52;;;;;;;17.87;53.93;98838.03;4237040;27;20214;-71
2022/09/02 09:27:30;;;;;;;2.03;1.50;;;;;;;17.87;52.94;98838.03;4236354;27;20103;-71
2022/09/02 09:29:33;;;;;;;2.70;1.40;;;;;;;17.95;50.66;98839.50;4236176;27;20039;-71
2022/09/02 09:31:34;;;;;;;5.35;1.70;;;;;;;18.00;51.79;98835.47;4236381;27;20555;-71
2022/09/02 09:33:35;;;;;;;2.30;1.48;;;;;;;18.15;50.31;98833.28;4236734;27;20039;-71
2022/09/02 09:35:55;;;;;;;1.67;1.50;;;;;;;18.25;50.92;98832.34;4236468;27;20054;-71
2022/09/02 09:37:55;;;;;;;2.17;1.70;;;;;;;18.23;49.46;98821.56;4235862;27;20043;-71
2022/09/02 09:39:56;;;;;;;3.90;1.50;;;;;;;18.28;50.21;98817.47;4236063;28;20039;-71
2022/09/02 09:42:12;;;;;;;1.90;1.67;;;;;;;18.36;49.00;98821.78;4236157;28;20100;-71